createdAt,value
2019-05-25T00:01:37.972Z,17.91
2019-05-25T00:04:09.813Z,18.67
2019-05-25T00:06:41.562Z,18.49
2019-05-25T00:09:13.306Z,17.84
2019-05-25T00:11:46.820Z,17.23
2019-05-25T00:14:19.240Z,16.78
2019-05-25T00:16:51.086Z,16.35
2019-05-25T00:19:22.827Z,15.93
2019-05-25T00:21:54.570Z,15.56
2019-05-25T00:24:26.307Z,15.88
2019-05-25T00:26:58.049Z,16.88
2019-05-25T00:29:29.794Z,17.76
2019-05-25T00:32:01.608Z,18.47
2019-05-25T00:34:33.318Z,18.37
2019-05-25T00:37:05.434Z,17.73
2019-05-25T00:39:37.143Z,17.14
2019-05-25T00:42:08.883Z,16.68
2019-05-25T00:44:40.731Z,16.27
2019-05-25T00:47:12.474Z,15.84
2019-05-25T00:49:44.213Z,15.46
2019-05-25T00:52:15.953Z,15.84
2019-05-25T00:54:49.332Z,16.81
2019-05-25T00:57:20.977Z,17.67
2019-05-25T00:59:52.950Z,18.39
2019-05-25T01:02:24.792Z,18.20
2019-05-25T01:04:56.643Z,17.54
2019-05-25T01:07:28.387Z,16.97
2019-05-25T01:10:00.134Z,16.48
2019-05-25T01:12:31.863Z,16.04
2019-05-25T01:15:06.610Z,15.59
2019-05-25T01:17:39.875Z,15.21
2019-05-25T01:20:14.357Z,15.56
2019-05-25T01:22:47.607Z,16.60
2019-05-25T01:25:19.519Z,17.40
2019-05-25T01:27:52.247Z,18.15
2019-05-25T01:30:24.323Z,18.01
2019-05-25T01:32:55.869Z,17.30
2019-05-25T01:35:28.846Z,16.76
2019-05-25T01:38:02.094Z,16.25
2019-05-25T01:40:34.136Z,15.81
2019-05-25T01:43:07.124Z,15.39
2019-05-25T01:45:38.866Z,15.01
2019-05-25T01:48:11.853Z,15.43
2019-05-25T01:50:43.589Z,16.45
2019-05-25T01:53:16.570Z,17.28
2019-05-25T01:55:49.545Z,18.02
2019-05-25T01:58:21.394Z,17.87
2019-05-25T02:00:53.133Z,17.23
2019-05-25T02:03:25.059Z,16.66
2019-05-25T02:05:56.909Z,16.15
2019-05-25T02:08:28.668Z,15.69
2019-05-25T02:11:00.401Z,15.24
2019-05-25T02:13:32.248Z,14.83
2019-05-25T02:16:04.105Z,15.22
2019-05-25T02:18:36.018Z,16.21
2019-05-25T02:21:07.811Z,17.02
2019-05-25T02:23:39.586Z,17.77
2019-05-25T02:26:11.330Z,17.60
2019-05-25T02:28:43.365Z,16.93
2019-05-25T02:31:15.111Z,16.36
2019-05-25T02:33:46.856Z,15.88
2019-05-25T02:36:20.842Z,15.45
2019-05-25T02:38:53.737Z,15.03
2019-05-25T02:41:26.155Z,14.69
2019-05-25T02:43:57.896Z,15.14
2019-05-25T02:46:30.016Z,16.14
2019-05-25T02:49:01.758Z,17.00
2019-05-25T02:51:33.507Z,17.74
2019-05-25T02:54:05.504Z,17.64
2019-05-25T02:56:38.217Z,17.01
2019-05-25T02:59:09.951Z,16.45
2019-05-25T03:01:41.805Z,16.04
2019-05-25T03:04:15.007Z,15.62
2019-05-25T03:06:47.119Z,15.27
2019-05-25T03:09:21.535Z,14.97
2019-05-25T03:11:54.009Z,15.43
2019-05-25T03:14:25.747Z,16.52
2019-05-25T03:16:58.457Z,17.40
2019-05-25T03:19:30.190Z,18.18
2019-05-25T03:22:01.933Z,18.16
2019-05-25T03:24:33.781Z,17.58
2019-05-25T03:27:06.386Z,17.10
2019-05-25T03:29:38.121Z,16.70
2019-05-25T03:32:10.012Z,16.33
2019-05-25T03:34:41.999Z,16.03
2019-05-25T03:37:13.713Z,15.73
2019-05-25T03:39:45.556Z,15.46
2019-05-25T03:42:17.350Z,15.97
2019-05-25T03:44:49.665Z,17.07
2019-05-25T03:47:21.409Z,18.05
2019-05-25T03:49:53.605Z,18.95
2019-05-25T03:52:25.608Z,18.89
2019-05-25T03:54:57.250Z,18.35
2019-05-25T03:57:29.086Z,17.97
2019-05-25T04:00:00.829Z,17.67
2019-05-25T04:02:32.562Z,17.47
2019-05-25T04:05:05.734Z,17.33
2019-05-25T04:07:37.368Z,17.30
2019-05-25T04:10:09.782Z,17.39
2019-05-25T04:12:41.429Z,17.46
2019-05-25T04:15:13.340Z,17.56
2019-05-25T04:17:46.900Z,17.63
2019-05-25T04:20:18.613Z,17.74
2019-05-25T04:22:50.647Z,17.90
2019-05-25T04:25:23.665Z,18.15
2019-05-25T04:27:55.396Z,18.43
2019-05-25T04:30:27.222Z,18.84
2019-05-25T04:32:58.842Z,19.23
2019-05-25T04:35:30.686Z,19.68
2019-05-25T04:38:02.737Z,20.19
2019-05-25T04:40:34.500Z,20.74
2019-05-25T04:43:06.840Z,21.20
2019-05-25T04:45:38.584Z,21.34
2019-05-25T04:48:10.326Z,21.26
2019-05-25T04:50:43.029Z,21.14
2019-05-25T04:53:14.834Z,21.01
2019-05-25T04:55:46.877Z,21.10
2019-05-25T04:58:18.626Z,21.40
2019-05-25T05:00:50.360Z,21.72
2019-05-25T05:03:22.114Z,22.10
2019-05-25T05:05:53.936Z,22.47
2019-05-25T05:08:25.690Z,22.86
2019-05-25T05:10:57.428Z,23.26
2019-05-25T05:13:29.466Z,23.69
2019-05-25T05:16:01.313Z,24.09
2019-05-25T05:18:33.065Z,24.36
2019-05-25T05:21:04.822Z,24.32
2019-05-25T05:23:36.565Z,24.06
2019-05-25T05:26:08.635Z,23.77
2019-05-25T05:28:40.380Z,23.41
2019-05-25T05:31:23.277Z,23.13
2019-05-25T05:33:45.687Z,22.96
2019-05-25T05:36:19.260Z,23.03
2019-05-25T05:38:52.241Z,23.29
2019-05-25T05:41:25.208Z,23.71
2019-05-25T05:44:00.633Z,24.00
2019-05-25T05:46:35.430Z,24.13
2019-05-25T05:49:10.481Z,24.28
2019-05-25T05:51:44.104Z,24.27
2019-05-25T05:54:17.872Z,24.00
2019-05-25T05:56:50.259Z,23.82
2019-05-25T05:59:21.895Z,23.88
2019-05-25T06:01:53.830Z,24.07
2019-05-25T06:04:25.566Z,24.32
2019-05-25T06:06:57.292Z,24.55
2019-05-25T06:09:29.160Z,24.72
2019-05-25T06:12:00.784Z,24.90
2019-05-25T06:14:32.632Z,25.23
2019-05-25T06:17:04.547Z,25.52
2019-05-25T06:19:40.742Z,25.75
2019-05-25T06:22:15.686Z,26.04
2019-05-25T06:24:47.329Z,26.28
2019-05-25T06:27:27.338Z,26.56
2019-05-25T06:29:52.650Z,26.93
2019-05-25T06:32:24.390Z,27.33
2019-05-25T06:34:56.211Z,27.60
2019-05-25T06:37:28.361Z,27.89
2019-05-25T06:40:02.614Z,28.24
2019-05-25T06:42:39.438Z,28.67
2019-05-25T06:45:13.488Z,28.99
2019-05-25T06:47:45.619Z,29.23
2019-05-25T06:50:20.790Z,29.52
2019-05-25T06:52:52.639Z,29.79
2019-05-25T06:55:24.366Z,30.11
2019-05-25T06:57:56.095Z,30.35
2019-05-25T07:00:28.003Z,30.56
2019-05-25T07:03:00.103Z,30.69
2019-05-25T07:05:32.925Z,30.81
2019-05-25T07:08:05.031Z,31.06
2019-05-25T07:10:36.768Z,31.38
2019-05-25T07:13:08.502Z,31.80
2019-05-25T07:15:40.230Z,32.14
2019-05-25T07:18:12.060Z,32.44
2019-05-25T07:20:43.785Z,32.71
2019-05-25T07:23:15.514Z,33.03
2019-05-25T07:25:47.347Z,33.38
2019-05-25T07:28:19.078Z,33.62
2019-05-25T07:30:50.821Z,33.75
2019-05-25T07:33:22.562Z,33.87
2019-05-25T07:35:54.296Z,33.98
2019-05-25T07:38:26.259Z,33.95
2019-05-25T07:40:57.891Z,34.03
2019-05-25T07:43:29.640Z,34.12
2019-05-25T07:46:01.370Z,34.17
2019-05-25T07:48:33.173Z,34.19
2019-05-25T07:51:04.932Z,34.13
2019-05-25T07:53:37.528Z,33.91
2019-05-25T07:56:09.370Z,33.88
2019-05-25T07:58:41.062Z,33.85
2019-05-25T08:01:13.168Z,33.93
2019-05-25T08:03:47.079Z,33.93
2019-05-25T08:06:18.803Z,33.95
2019-05-25T08:08:51.786Z,33.85
2019-05-25T08:11:23.538Z,33.89
2019-05-25T08:13:55.368Z,33.60
2019-05-25T08:16:27.114Z,33.20
2019-05-25T08:18:58.847Z,32.83
2019-05-25T08:21:30.609Z,32.35
2019-05-25T08:24:02.338Z,31.82
2019-05-25T08:26:34.082Z,31.27
2019-05-25T08:29:05.923Z,30.66
2019-05-25T08:31:37.677Z,30.14
2019-05-25T08:34:09.428Z,29.72
2019-05-25T08:36:44.919Z,29.27
2019-05-25T08:39:16.847Z,28.87
2019-05-25T08:41:51.016Z,28.48
2019-05-25T08:44:22.843Z,28.17
2019-05-25T08:46:55.744Z,27.90
2019-05-25T08:49:27.668Z,27.65
2019-05-25T08:51:59.738Z,27.43
2019-05-25T08:54:31.480Z,27.21
2019-05-25T08:57:04.896Z,27.09
2019-05-25T08:59:36.530Z,27.00
2019-05-25T09:02:08.269Z,26.75
2019-05-25T09:04:40.016Z,26.52
2019-05-25T09:07:11.749Z,26.31
2019-05-25T09:09:43.624Z,26.13
2019-05-25T09:12:15.389Z,25.95
2019-05-25T09:14:48.812Z,25.75
2019-05-25T09:17:20.678Z,25.64
2019-05-25T09:19:52.428Z,25.44
2019-05-25T09:22:24.176Z,25.30
2019-05-25T09:24:55.915Z,25.19
2019-05-25T09:27:27.698Z,25.10
2019-05-25T09:30:01.127Z,25.06
2019-05-25T09:32:32.783Z,24.99
2019-05-25T09:35:07.167Z,24.92
2019-05-25T09:37:39.013Z,24.82
2019-05-25T09:40:11.561Z,24.71
2019-05-25T09:42:44.628Z,24.55
2019-05-25T09:45:16.872Z,24.44
2019-05-25T09:47:48.508Z,24.33
2019-05-25T09:50:20.308Z,24.26
2019-05-25T09:52:52.036Z,24.19
2019-05-25T09:55:23.767Z,24.12
2019-05-25T09:57:55.494Z,23.98
2019-05-25T10:00:27.776Z,23.89
2019-05-25T10:02:59.416Z,23.82
2019-05-25T10:05:31.164Z,23.65
2019-05-25T10:08:04.185Z,23.55
2019-05-25T10:10:36.074Z,23.50
2019-05-25T10:13:07.898Z,23.50
2019-05-25T10:15:40.938Z,23.51
2019-05-25T10:18:12.673Z,23.50
2019-05-25T10:20:45.534Z,23.53
2019-05-25T10:23:17.259Z,23.57
2019-05-25T10:25:48.885Z,23.51
2019-05-25T10:28:20.916Z,23.53
2019-05-25T10:30:52.792Z,23.61
2019-05-25T10:33:25.998Z,23.65
2019-05-25T10:35:57.724Z,23.69
2019-05-25T10:38:29.558Z,23.71
2019-05-25T10:41:01.285Z,23.77
2019-05-25T10:43:36.945Z,23.77
2019-05-25T10:46:08.780Z,23.82
2019-05-25T10:48:40.538Z,23.82
2019-05-25T10:51:12.342Z,23.78
2019-05-25T10:53:44.415Z,23.78
2019-05-25T10:56:16.144Z,23.81
2019-05-25T10:58:48.086Z,23.91
2019-05-25T11:01:19.621Z,23.99
2019-05-25T11:03:52.954Z,24.09
2019-05-25T11:06:24.697Z,24.13
2019-05-25T11:08:56.238Z,24.12
2019-05-25T11:11:27.861Z,24.10
2019-05-25T11:13:59.391Z,24.05
2019-05-25T11:16:32.393Z,24.02
2019-05-25T11:19:04.123Z,24.00
2019-05-25T11:21:35.850Z,23.98
2019-05-25T11:24:07.585Z,24.05
2019-05-25T11:26:40.803Z,24.13
2019-05-25T11:29:13.877Z,24.24
2019-05-25T11:31:54.631Z,24.32
2019-05-25T11:34:18.643Z,24.36
2019-05-25T11:36:50.382Z,24.26
2019-05-25T11:39:22.511Z,24.24
2019-05-25T11:41:54.034Z,24.19
2019-05-25T11:44:26.966Z,24.15
2019-05-25T11:46:59.618Z,24.12
2019-05-25T11:49:31.364Z,24.06
2019-05-25T11:52:03.099Z,24.02
2019-05-25T11:54:34.829Z,23.99
2019-05-25T11:57:07.430Z,24.00
2019-05-25T11:59:39.359Z,23.99
2019-05-25T12:02:11.087Z,23.98
2019-05-25T12:04:43.631Z,23.93
2019-05-25T12:07:15.466Z,23.91
2019-05-25T12:09:47.290Z,23.75
2019-05-25T12:12:19.025Z,23.69
2019-05-25T12:14:50.767Z,23.69
2019-05-25T12:17:22.633Z,23.75
2019-05-25T12:19:54.273Z,23.74
2019-05-25T12:22:26.131Z,23.75
2019-05-25T12:24:57.650Z,23.79
2019-05-25T12:27:29.278Z,23.85
2019-05-25T12:30:02.695Z,23.95
2019-05-25T12:32:34.605Z,24.02
2019-05-25T12:35:08.420Z,24.12
2019-05-25T12:37:40.247Z,24.20
2019-05-25T12:40:12.645Z,24.17
2019-05-25T12:42:45.902Z,24.07
2019-05-25T12:45:18.380Z,24.12
2019-05-25T12:47:49.943Z,24.06
2019-05-25T12:50:22.609Z,24.03
2019-05-25T12:52:54.150Z,24.00
2019-05-25T12:55:26.033Z,24.02
2019-05-25T12:57:57.751Z,24.07
2019-05-25T13:00:29.488Z,24.12
2019-05-25T13:03:01.249Z,24.17
2019-05-25T13:05:34.738Z,24.24
2019-05-25T13:08:08.157Z,24.26
2019-05-25T13:10:39.903Z,24.28
2019-05-25T13:13:11.664Z,24.30
2019-05-25T13:15:43.433Z,24.33
2019-05-25T13:18:15.161Z,24.30
2019-05-25T13:20:47.032Z,24.32
2019-05-25T13:23:18.787Z,24.34
2019-05-25T13:25:50.529Z,24.33
2019-05-25T13:28:22.257Z,24.33
2019-05-25T13:30:53.998Z,24.37
2019-05-25T13:33:26.867Z,24.40
2019-05-25T13:35:58.715Z,24.37
2019-05-25T13:38:30.447Z,24.30
2019-05-25T13:41:02.302Z,24.20
2019-05-25T13:43:34.048Z,24.12
2019-05-25T13:46:06.666Z,24.06
2019-05-25T13:48:38.410Z,24.06
2019-05-25T13:51:10.284Z,24.09
2019-05-25T13:53:41.908Z,24.07
2019-05-25T13:56:13.760Z,24.03
2019-05-25T13:58:45.480Z,24.05
2019-05-25T14:01:27.919Z,24.03
2019-05-25T14:03:50.571Z,23.95
2019-05-25T14:06:22.329Z,23.89
2019-05-25T14:08:54.071Z,23.87
2019-05-25T14:11:25.805Z,23.81
2019-05-25T14:13:57.543Z,23.79
2019-05-25T14:16:29.292Z,23.85
2019-05-25T14:19:01.121Z,23.87
2019-05-25T14:21:34.513Z,23.79
2019-05-25T14:24:06.537Z,23.74
2019-05-25T14:26:38.478Z,23.71
2019-05-25T14:29:10.303Z,23.62
2019-05-25T14:31:45.852Z,23.55
2019-05-25T14:34:15.591Z,23.50
2019-05-25T14:36:47.449Z,23.44
2019-05-25T14:39:20.498Z,23.41
2019-05-25T14:41:54.060Z,23.30
2019-05-25T14:44:25.687Z,23.16
2019-05-25T14:46:58.397Z,23.05
2019-05-25T14:49:30.138Z,22.92
2019-05-25T14:52:02.014Z,22.86
2019-05-25T14:54:33.683Z,22.79
2019-05-25T14:57:05.909Z,22.75
2019-05-25T14:59:37.765Z,22.71
2019-05-25T15:02:10.471Z,22.64
2019-05-25T15:04:42.308Z,22.58
2019-05-25T15:07:14.089Z,22.54
2019-05-25T15:09:45.782Z,22.51
2019-05-25T15:12:17.595Z,22.40
2019-05-25T15:14:49.612Z,22.37
2019-05-25T15:17:21.348Z,22.34
2019-05-25T15:19:53.239Z,22.30
2019-05-25T15:22:25.987Z,22.29
2019-05-25T15:24:57.845Z,22.21
2019-05-25T15:27:31.075Z,22.20
2019-05-25T15:30:03.211Z,22.15
2019-05-25T15:32:34.937Z,22.06
2019-05-25T15:35:08.134Z,21.98
2019-05-25T15:37:39.758Z,21.85
2019-05-25T15:40:13.062Z,21.72
2019-05-25T15:42:45.102Z,21.60
2019-05-25T15:45:20.695Z,21.53
2019-05-25T15:47:53.681Z,21.44
2019-05-25T15:50:25.938Z,21.39
2019-05-25T15:52:57.481Z,21.31
2019-05-25T15:55:29.905Z,21.27
2019-05-25T15:58:01.778Z,21.23
2019-05-25T16:00:51.830Z,21.17
2019-05-25T16:03:23.826Z,21.13
2019-05-25T16:05:55.868Z,21.12
2019-05-25T16:08:27.566Z,21.05
2019-05-25T16:10:59.364Z,20.96
2019-05-25T16:13:31.118Z,20.92
2019-05-25T16:16:02.896Z,20.82
2019-05-25T16:18:34.628Z,20.68
2019-05-25T16:21:06.492Z,20.61
2019-05-25T16:23:38.126Z,20.47
2019-05-25T16:26:09.888Z,20.39
2019-05-25T16:28:41.625Z,20.26
2019-05-25T16:31:13.370Z,20.16
2019-05-25T16:33:45.128Z,20.05
2019-05-25T16:36:16.897Z,19.93
2019-05-25T16:38:48.689Z,19.84
2019-05-25T16:41:20.415Z,19.72
2019-05-25T16:43:52.190Z,19.62
2019-05-25T16:46:24.003Z,19.51
2019-05-25T16:48:56.631Z,19.42
2019-05-25T16:51:28.429Z,19.29
2019-05-25T16:54:00.200Z,19.22
2019-05-25T16:56:32.091Z,19.09
2019-05-25T16:59:03.987Z,19.02
2019-05-25T17:01:47.553Z,18.92
2019-05-25T17:04:09.326Z,18.87
2019-05-25T17:06:41.095Z,18.75
2019-05-25T17:09:12.897Z,18.71
2019-05-25T17:11:44.652Z,18.64
2019-05-25T17:14:16.576Z,18.59
2019-05-25T17:16:48.501Z,18.56
2019-05-25T17:19:20.527Z,18.50
2019-05-25T17:21:52.686Z,18.49
2019-05-25T17:24:24.513Z,18.46
2019-05-25T17:26:56.378Z,18.42
2019-05-25T17:29:29.156Z,18.42
2019-05-25T17:32:00.810Z,18.39
2019-05-25T17:34:32.759Z,18.36
2019-05-25T17:37:05.120Z,18.32
2019-05-25T17:39:37.108Z,18.25
2019-05-25T17:42:10.677Z,18.20
2019-05-25T17:44:42.492Z,18.16
2019-05-25T17:47:14.180Z,18.11
2019-05-25T17:49:46.826Z,18.04
2019-05-25T17:52:22.582Z,17.95
2019-05-25T17:54:53.721Z,17.88
2019-05-25T17:57:25.555Z,17.81
2019-05-25T17:59:59.461Z,17.70
2019-05-25T18:02:30.566Z,17.63
2019-05-25T18:05:02.359Z,17.52
2019-05-25T18:07:35.141Z,17.43
2019-05-25T18:10:08.803Z,17.33
2019-05-25T18:12:40.431Z,17.25
2019-05-25T18:15:14.878Z,17.15
2019-05-25T18:18:11.399Z,17.04
2019-05-25T18:20:44.038Z,16.95
2019-05-25T18:23:20.877Z,16.86
2019-05-25T18:25:58.034Z,16.76
2019-05-25T18:28:30.562Z,16.62
2019-05-25T18:31:02.309Z,16.52
2019-05-25T18:33:34.036Z,16.40
2019-05-25T18:36:05.827Z,16.31
2019-05-25T18:38:39.823Z,16.18
2019-05-25T18:41:13.538Z,16.05
2019-05-25T18:43:47.329Z,15.93
2019-05-25T18:46:21.179Z,15.81
2019-05-25T18:48:54.185Z,15.70
2019-05-25T18:51:25.860Z,15.62
2019-05-25T18:53:57.645Z,15.49
2019-05-25T18:56:29.406Z,15.39
2019-05-25T18:59:10.500Z,15.28
2019-05-25T19:01:44.820Z,15.17
2019-05-25T19:04:19.925Z,15.07
2019-05-25T19:06:55.019Z,14.98
2019-05-25T19:09:28.253Z,14.87
2019-05-25T19:11:59.950Z,14.77
2019-05-25T19:14:34.648Z,14.66
2019-05-25T19:17:19.362Z,14.56
2019-05-25T19:19:49.732Z,14.48
2019-05-25T19:22:26.480Z,14.39
2019-05-25T19:24:59.506Z,14.32
2019-05-25T19:27:36.970Z,15.01
2019-05-25T19:30:18.433Z,16.31
2019-05-25T19:32:50.771Z,16.63
2019-05-25T19:35:22.639Z,16.27
2019-05-25T19:37:55.463Z,16.00
2019-05-25T19:40:27.444Z,15.76
2019-05-25T19:42:59.551Z,15.52
2019-05-25T19:45:35.331Z,15.31
2019-05-25T19:48:07.423Z,15.14
2019-05-25T19:50:39.268Z,14.97
2019-05-25T19:53:17.189Z,14.77
2019-05-25T19:55:49.205Z,14.60
2019-05-25T19:58:25.256Z,14.43
2019-05-25T20:01:01.004Z,14.28
2019-05-25T20:03:35.468Z,14.91
2019-05-25T20:06:09.492Z,16.08
2019-05-25T20:08:44.561Z,17.14
2019-05-25T20:11:18.017Z,17.22
2019-05-25T20:13:49.858Z,16.76
2019-05-25T20:16:24.848Z,16.36
2019-05-25T20:18:57.606Z,16.01
2019-05-25T20:21:31.581Z,15.76
2019-05-25T20:24:06.818Z,15.48
2019-05-25T20:26:40.251Z,15.18
2019-05-25T20:29:15.316Z,14.96
2019-05-25T20:31:47.070Z,14.75
2019-05-25T20:34:20.551Z,14.48
2019-05-25T20:36:52.811Z,14.28
2019-05-25T20:39:29.014Z,14.10
2019-05-25T20:42:00.600Z,13.92
2019-05-25T20:44:36.012Z,13.73
2019-05-25T20:47:07.790Z,14.36
2019-05-25T20:49:41.591Z,15.52
2019-05-25T20:52:25.869Z,16.53
2019-05-25T20:54:59.821Z,17.43
2019-05-25T20:57:35.348Z,17.40
2019-05-25T21:00:07.802Z,16.86
2019-05-25T21:03:04.743Z,16.38
2019-05-25T21:05:25.170Z,15.95
2019-05-25T21:07:59.814Z,15.58
2019-05-25T21:10:35.772Z,15.25
2019-05-25T21:13:10.685Z,14.93
2019-05-25T21:15:52.194Z,14.63
2019-05-25T21:18:34.225Z,14.32
2019-05-25T21:21:06.020Z,14.80
2019-05-25T21:23:42.601Z,15.87
2019-05-25T21:26:18.957Z,16.83
2019-05-25T21:28:50.766Z,16.91
2019-05-25T21:31:27.369Z,16.35
2019-05-25T21:34:04.683Z,15.87
2019-05-25T21:36:48.337Z,15.45
2019-05-25T21:39:26.556Z,15.07
2019-05-25T21:42:00.599Z,14.75
2019-05-25T21:44:36.980Z,14.41
2019-05-25T21:47:08.545Z,14.10
2019-05-25T21:49:41.525Z,13.85
2019-05-25T21:52:14.888Z,14.31
2019-05-25T21:54:46.721Z,15.37
2019-05-25T21:57:19.027Z,16.33
2019-05-25T21:59:50.696Z,17.14
2019-05-25T22:02:22.445Z,17.07
2019-05-25T22:04:54.194Z,16.49
2019-05-25T22:07:26.627Z,15.98
2019-05-25T22:09:58.296Z,15.55
2019-05-25T22:12:30.083Z,15.13
2019-05-25T22:15:01.838Z,14.79
2019-05-25T22:17:34.166Z,14.42
2019-05-25T22:20:11.088Z,14.08
2019-05-25T22:22:43.484Z,13.78
2019-05-25T22:25:16.136Z,14.20
2019-05-25T22:27:47.982Z,15.25
2019-05-25T22:30:22.655Z,16.17
2019-05-25T22:32:54.617Z,16.97
2019-05-25T22:35:26.657Z,16.90
2019-05-25T22:37:58.419Z,16.27
2019-05-25T22:40:30.178Z,15.73
2019-05-25T22:43:01.920Z,15.27
2019-05-25T22:45:33.683Z,14.84
2019-05-25T22:48:05.522Z,14.45
2019-05-25T22:50:37.183Z,14.08
2019-05-25T22:53:08.938Z,13.75
2019-05-25T22:55:40.721Z,14.10
2019-05-25T22:58:12.470Z,15.08
2019-05-25T23:00:44.249Z,15.93
2019-05-25T23:03:16.367Z,16.71
2019-05-25T23:05:48.336Z,16.63
2019-05-25T23:08:20.085Z,16.00
2019-05-25T23:10:51.849Z,15.43
2019-05-25T23:13:23.608Z,15.00
2019-05-25T23:15:55.373Z,14.59
2019-05-25T23:18:28.700Z,14.18
2019-05-25T23:21:00.455Z,13.85
2019-05-25T23:23:32.508Z,13.48
2019-05-25T23:26:04.269Z,13.86
2019-05-25T23:28:37.296Z,14.86
2019-05-25T23:31:09.048Z,15.77
2019-05-25T23:33:41.100Z,16.53
2019-05-25T23:36:12.847Z,16.48
2019-05-25T23:38:45.778Z,15.84
2019-05-25T23:41:17.583Z,15.28
2019-05-25T23:43:49.339Z,14.80
2019-05-25T23:46:22.420Z,14.39
2019-05-25T23:48:54.084Z,13.98
2019-05-25T23:51:27.103Z,13.62
2019-05-25T23:53:58.847Z,13.30
2019-05-25T23:56:30.593Z,13.76
2019-05-25T23:59:02.336Z,14.79
